createdAt,value
2018-02-06T00:02:11.095Z,0.40
2018-02-06T00:04:38.621Z,0.40
2018-02-06T00:07:06.118Z,0.30
2018-02-06T00:09:34.403Z,0.30
2018-02-06T00:12:02.695Z,0.30
2018-02-06T00:14:30.200Z,0.30
2018-02-06T00:16:57.715Z,0.20
2018-02-06T00:19:25.982Z,0.20
2018-02-06T00:21:54.247Z,0.20
2018-02-06T00:24:21.744Z,0.20
2018-02-06T00:26:49.251Z,0.20
2018-02-06T00:29:16.771Z,0.20
2018-02-06T00:31:44.262Z,0.20
2018-02-06T00:34:11.788Z,0.10
2018-02-06T00:36:39.306Z,0.10
2018-02-06T00:39:07.578Z,0.00
2018-02-06T00:41:35.849Z,0.00
2018-02-06T00:44:03.334Z,-0.10
2018-02-06T00:46:30.870Z,-0.10
2018-02-06T00:48:58.361Z,-0.10
2018-02-06T00:51:25.865Z,-0.10
2018-02-06T00:53:53.393Z,-0.10
2018-02-06T00:56:20.890Z,-0.10
2018-02-06T00:58:48.398Z,-0.20
2018-02-06T01:01:15.918Z,-0.10
2018-02-06T01:03:43.438Z,-0.10
2018-02-06T01:06:10.937Z,-0.10
2018-02-06T01:08:39.197Z,0.00
2018-02-06T01:11:06.711Z,-0.10
2018-02-06T01:13:34.230Z,0.00
2018-02-06T01:16:01.808Z,0.00
2018-02-06T01:18:29.258Z,0.00
2018-02-06T01:20:57.524Z,0.00
2018-02-06T01:23:25.792Z,-0.10
2018-02-06T01:25:53.343Z,-0.10
2018-02-06T01:28:20.850Z,-0.10
2018-02-06T01:30:48.356Z,-0.10
2018-02-06T01:33:15.865Z,-0.10
2018-02-06T01:35:43.393Z,-0.10
2018-02-06T01:38:11.657Z,-0.20
2018-02-06T01:40:39.187Z,-0.10
2018-02-06T01:43:06.692Z,-0.20
2018-02-06T01:45:35.041Z,-0.20
2018-02-06T01:48:03.087Z,-0.20
2018-02-06T01:50:30.595Z,-0.30
2018-02-06T01:52:58.122Z,-0.30
2018-02-06T01:55:25.630Z,-0.30
2018-02-06T01:57:53.913Z,-0.20
2018-02-06T02:00:21.413Z,-0.20
2018-02-06T02:02:48.943Z,-0.20
2018-02-06T02:05:16.451Z,-0.30
2018-02-06T02:07:43.936Z,-0.30
2018-02-06T02:10:12.217Z,-0.20
2018-02-06T02:12:40.492Z,-0.30
2018-02-06T02:15:08.745Z,-0.30
2018-02-06T02:17:37.013Z,-0.30
2018-02-06T02:20:04.506Z,-0.30
2018-02-06T02:22:32.773Z,-0.20
2018-02-06T02:25:00.313Z,-0.20
2018-02-06T02:27:27.828Z,-0.20
2018-02-06T02:29:55.318Z,-0.20
2018-02-06T02:32:22.851Z,-0.20
2018-02-06T02:34:50.349Z,-0.10
2018-02-06T02:37:17.866Z,-0.10
2018-02-06T02:39:45.349Z,-0.10
2018-02-06T04:40:22.459Z,0.90
2018-02-06T04:42:50.758Z,1.00
2018-02-06T04:45:18.316Z,1.00
2018-02-06T04:47:45.818Z,1.10
2018-02-06T04:50:13.315Z,1.00
2018-02-06T04:52:41.592Z,1.00
2018-02-06T04:55:09.852Z,1.00
2018-02-06T04:57:37.358Z,1.00
2018-02-06T05:00:04.867Z,1.00
2018-02-06T05:02:32.365Z,1.00
2018-02-06T05:04:59.868Z,1.00
2018-02-06T05:07:27.380Z,1.00
2018-02-06T05:09:54.873Z,1.10
2018-02-06T05:12:22.393Z,1.00
2018-02-06T05:14:49.933Z,1.00
2018-02-06T05:17:18.190Z,1.00
2018-02-06T05:19:45.692Z,0.90
2018-02-06T05:22:13.181Z,1.00
2018-02-06T05:24:40.709Z,0.90
2018-02-06T05:27:08.239Z,1.00
2018-02-06T05:29:36.529Z,1.10
2018-02-06T05:32:04.790Z,1.10
2018-02-06T05:34:32.296Z,1.10
2018-02-06T05:36:59.823Z,1.10
2018-02-06T05:39:28.136Z,1.10
2018-02-06T05:41:55.699Z,1.10
2018-02-06T05:44:23.262Z,1.10
2018-02-06T05:46:50.802Z,1.10
2018-02-06T05:49:18.446Z,1.10
2018-02-06T05:51:45.977Z,1.20
2018-02-06T05:54:14.265Z,1.10
2018-02-06T05:56:42.566Z,1.10
2018-02-06T05:59:10.064Z,1.10
2018-02-06T06:01:37.586Z,1.20
2018-02-06T06:04:05.124Z,1.20
2018-02-06T06:06:33.431Z,1.20
2018-02-06T06:09:00.958Z,1.10
2018-02-06T06:11:29.213Z,1.20
2018-02-06T06:13:56.706Z,1.10
2018-02-06T06:16:25.158Z,1.20
2018-02-06T06:18:52.678Z,1.20
2018-02-06T06:21:20.231Z,1.20
2018-02-06T06:23:47.757Z,1.10
2018-02-06T06:26:16.068Z,1.00
2018-02-06T06:28:43.607Z,1.00
2018-02-06T06:31:11.117Z,1.00
2018-02-06T06:33:38.628Z,1.00
2018-02-06T06:36:06.132Z,1.10
2018-02-06T06:38:34.429Z,1.00
2018-02-06T06:41:02.762Z,1.00
2018-02-06T06:43:30.250Z,1.00
2018-02-06T06:45:57.745Z,0.80
2018-02-06T06:48:25.260Z,0.80
2018-02-06T06:50:52.858Z,0.80
2018-02-06T06:53:21.148Z,0.80
2018-02-06T06:55:48.719Z,0.80
2018-02-06T06:58:16.229Z,0.90
2018-02-06T07:00:43.733Z,0.90
2018-02-06T07:03:11.254Z,0.90
2018-02-06T07:05:39.540Z,0.90
2018-02-06T07:08:07.849Z,0.90
2018-02-06T07:10:35.352Z,0.90
2018-02-06T07:13:02.862Z,0.90
2018-02-06T07:15:30.714Z,1.00
2018-02-06T07:17:59.038Z,1.00
2018-02-06T07:20:26.548Z,1.00
2018-02-06T07:22:54.880Z,0.90
2018-02-06T07:25:22.445Z,0.90
2018-02-06T07:27:50.005Z,1.00
2018-02-06T07:30:17.569Z,0.90
2018-02-06T07:32:45.137Z,0.90
2018-02-06T07:35:12.641Z,0.90
2018-02-06T07:37:40.168Z,1.10
2018-02-06T07:40:07.692Z,1.30
2018-02-06T07:42:35.253Z,1.40
2018-02-06T07:45:02.774Z,1.30
2018-02-06T07:47:30.313Z,1.30
2018-02-06T07:49:58.581Z,1.20
2018-02-06T07:52:26.105Z,1.10
2018-02-06T07:54:53.613Z,1.30
2018-02-06T07:57:21.923Z,1.40
2018-02-06T07:59:49.441Z,1.40
2018-02-06T08:02:17.754Z,1.50
2018-02-06T08:04:45.270Z,1.50
2018-02-06T08:07:12.782Z,1.50
2018-02-06T08:09:40.308Z,1.50
2018-02-06T08:12:07.854Z,1.50
2018-02-06T08:14:35.405Z,1.40
2018-02-06T08:17:02.910Z,1.50
2018-02-06T08:19:30.472Z,1.70
2018-02-06T08:21:58.020Z,1.70
2018-02-06T08:24:25.532Z,1.60
2018-02-06T08:26:53.057Z,1.60
2018-02-06T08:29:20.671Z,1.80
2018-02-06T08:31:49.019Z,2.10
2018-02-06T08:34:16.591Z,2.00
2018-02-06T08:36:44.169Z,2.20
2018-02-06T08:39:12.491Z,2.30
2018-02-06T08:41:40.086Z,2.30
2018-02-06T08:44:07.577Z,2.30
2018-02-06T08:46:35.141Z,2.30
2018-02-06T08:49:02.701Z,2.30
2018-02-06T08:51:30.217Z,2.40
2018-02-06T08:53:57.812Z,2.50
2018-02-06T08:56:26.202Z,2.90
2018-02-06T08:58:53.756Z,2.80
2018-02-06T09:01:21.298Z,3.00
2018-02-06T09:03:49.700Z,3.20
2018-02-06T09:06:17.283Z,3.20
2018-02-06T09:08:44.825Z,3.20
2018-02-06T09:11:12.384Z,3.20
2018-02-06T09:13:39.969Z,3.30
2018-02-06T09:16:07.500Z,3.40
2018-02-06T09:18:35.062Z,3.50
2018-02-06T09:21:02.576Z,3.70
2018-02-06T09:23:30.224Z,3.80
2018-02-06T09:25:57.764Z,3.90
2018-02-06T09:28:25.285Z,3.90
2018-02-06T09:30:53.657Z,3.80
2018-02-06T09:33:21.954Z,3.80
2018-02-06T09:35:49.520Z,3.80
2018-02-06T09:38:17.048Z,3.80
2018-02-06T09:40:51.183Z,4.10
2018-02-06T09:43:18.709Z,4.10
2018-02-06T09:45:46.237Z,4.70
2018-02-06T09:48:13.748Z,5.40
2018-02-06T09:50:42.112Z,7.40
2018-02-06T09:53:09.627Z,7.40
2018-02-06T09:55:37.186Z,7.90
2018-02-06T09:58:04.727Z,8.30
2018-02-06T10:00:32.268Z,8.30
2018-02-06T10:02:59.851Z,7.80
2018-02-06T10:05:27.385Z,7.40
2018-02-06T10:07:55.854Z,6.10
2018-02-06T10:10:23.645Z,6.00
2018-02-06T10:12:51.191Z,5.90
2018-02-06T10:15:18.737Z,5.90
2018-02-06T10:17:47.021Z,5.70
2018-02-06T10:20:15.409Z,5.70
2018-02-06T10:22:42.917Z,5.70
2018-02-06T10:25:10.541Z,5.40
2018-02-06T10:27:38.080Z,5.40
2018-02-06T10:30:06.352Z,5.60
2018-02-06T10:32:34.624Z,5.60
2018-02-06T10:35:02.177Z,5.60
2018-02-06T10:37:29.694Z,5.50
2018-02-06T10:39:57.213Z,5.40
2018-02-06T10:42:24.785Z,5.40
2018-02-06T10:44:53.080Z,5.20
2018-02-06T10:47:20.608Z,5.20
2018-02-06T10:49:48.960Z,4.90
2018-02-06T10:52:16.513Z,4.90
2018-02-06T10:54:44.043Z,4.90
2018-02-06T10:57:11.578Z,4.70
2018-02-06T10:59:39.092Z,4.40
2018-02-06T11:02:06.625Z,4.30
2018-02-06T11:04:34.183Z,4.50
2018-02-06T11:07:01.696Z,4.50
2018-02-06T11:09:29.988Z,4.30
2018-02-06T11:11:57.660Z,4.30
2018-02-06T11:14:25.223Z,4.30
2018-02-06T11:16:52.726Z,4.20
2018-02-06T11:19:20.258Z,4.10
2018-02-06T11:21:47.780Z,4.10
2018-02-06T11:24:15.387Z,4.10
2018-02-06T11:26:42.928Z,4.20
2018-02-06T11:29:10.455Z,4.20
2018-02-06T11:31:38.766Z,4.20
2018-02-06T11:34:06.297Z,4.20
2018-02-06T11:36:33.874Z,4.30
2018-02-06T11:39:01.409Z,4.30
2018-02-06T11:41:29.695Z,4.30
2018-02-06T11:43:57.223Z,4.20
2018-02-06T11:46:24.781Z,4.10
2018-02-06T11:48:52.306Z,4.30
2018-02-06T11:51:19.881Z,4.30
2018-02-06T11:53:47.454Z,4.30
2018-02-06T11:56:15.022Z,4.30
2018-02-06T11:58:42.569Z,4.40
2018-02-06T12:01:18.548Z,4.60
2018-02-06T12:03:46.078Z,4.70
2018-02-06T12:06:13.618Z,4.80
2018-02-06T12:08:41.161Z,4.70
2018-02-06T12:11:08.753Z,4.80
2018-02-06T12:13:36.271Z,4.70
2018-02-06T12:16:03.823Z,4.90
2018-02-06T12:18:32.271Z,4.50
2018-02-06T12:20:59.861Z,4.50
2018-02-06T12:23:28.155Z,4.80
2018-02-06T12:25:55.723Z,4.80
2018-02-06T12:28:23.244Z,4.90
2018-02-06T12:30:50.811Z,5.00
2018-02-06T12:33:19.103Z,4.90
2018-02-06T12:35:46.649Z,4.80
2018-02-06T12:38:14.974Z,4.80
2018-02-06T12:40:42.529Z,4.80
2018-02-06T12:43:10.055Z,4.80
2018-02-06T12:45:38.358Z,4.70
2018-02-06T12:48:05.923Z,4.70
2018-02-06T12:50:34.661Z,4.70
2018-02-06T12:53:02.978Z,4.60
2018-02-06T12:55:34.993Z,4.50
2018-02-06T12:58:02.632Z,4.60
2018-02-06T13:00:30.144Z,4.30
2018-02-06T13:02:57.697Z,4.40
2018-02-06T13:05:25.997Z,4.60
2018-02-06T13:07:53.543Z,4.60
2018-02-06T13:10:21.088Z,4.70
2018-02-06T13:12:49.369Z,4.90
2018-02-06T13:15:17.691Z,5.00
2018-02-06T13:17:45.220Z,4.90
2018-02-06T13:20:12.775Z,4.90
2018-02-06T13:22:40.341Z,5.00
2018-02-06T13:25:07.989Z,4.90
2018-02-06T13:27:35.575Z,4.70
2018-02-06T13:30:03.105Z,4.70
2018-02-06T13:32:30.666Z,4.40
2018-02-06T13:34:58.285Z,4.40
2018-02-06T13:37:25.818Z,4.40
2018-02-06T13:39:53.346Z,4.50
2018-02-06T13:42:20.872Z,4.40
2018-02-06T13:44:48.422Z,4.40
2018-02-06T13:47:16.085Z,4.20
2018-02-06T13:49:43.603Z,4.30
2018-02-06T13:52:11.139Z,4.30
2018-02-06T13:54:39.437Z,4.20
2018-02-06T13:57:06.976Z,4.20
2018-02-06T13:59:35.269Z,4.20
2018-02-06T14:02:02.834Z,4.20
2018-02-06T14:04:30.349Z,4.20
2018-02-06T14:06:57.890Z,4.20
2018-02-06T14:09:25.484Z,4.20
2018-02-06T14:11:53.772Z,4.20
2018-02-06T14:14:21.326Z,4.20
2018-02-06T14:16:49.625Z,4.10
2018-02-06T14:19:17.173Z,4.10
2018-02-06T14:21:44.709Z,4.10
2018-02-06T14:24:12.253Z,4.10
2018-02-06T14:26:39.777Z,4.20
2018-02-06T14:29:07.346Z,4.10
2018-02-06T14:31:34.876Z,4.10
2018-02-06T14:34:02.420Z,4.10
2018-02-06T14:36:30.778Z,4.10
2018-02-06T14:38:58.513Z,4.10
2018-02-06T14:41:26.061Z,4.20
2018-02-06T14:43:53.605Z,4.20
2018-02-06T14:46:21.172Z,4.30
2018-02-06T14:48:48.709Z,4.30
2018-02-06T14:51:16.285Z,4.30
2018-02-06T14:53:43.813Z,4.20
2018-02-06T14:56:12.133Z,4.30
2018-02-06T14:58:39.665Z,4.20
2018-02-06T15:01:07.252Z,4.30
2018-02-06T15:03:34.794Z,4.20
2018-02-06T15:06:02.337Z,4.20
2018-02-06T15:08:29.911Z,4.10
2018-02-06T15:10:57.444Z,4.10
2018-02-06T15:13:25.754Z,4.00
2018-02-06T15:15:53.308Z,4.00
2018-02-06T15:18:20.819Z,3.90
2018-02-06T15:20:48.576Z,3.90
2018-02-06T15:23:16.149Z,3.90
2018-02-06T15:25:43.698Z,3.80
2018-02-06T15:28:11.385Z,3.90
2018-02-06T15:30:39.677Z,3.90
2018-02-06T15:33:07.240Z,3.90
2018-02-06T15:35:34.778Z,3.90
2018-02-06T15:38:02.318Z,3.90
2018-02-06T15:40:31.023Z,3.80
2018-02-06T15:42:58.565Z,3.70
2018-02-06T15:45:26.116Z,3.70
2018-02-06T15:47:53.686Z,3.70
2018-02-06T15:50:21.229Z,3.70
2018-02-06T15:52:48.791Z,3.60
2018-02-06T15:55:16.332Z,3.50
2018-02-06T15:57:43.929Z,3.50
2018-02-06T16:00:11.481Z,3.40
2018-02-06T16:02:39.040Z,3.30
2018-02-06T16:05:06.812Z,3.20
2018-02-06T16:07:34.459Z,3.10
2018-02-06T16:10:02.145Z,3.00
2018-02-06T16:12:29.700Z,2.90
2018-02-06T16:14:57.250Z,2.80
2018-02-06T16:17:24.793Z,2.80
2018-02-06T16:19:52.332Z,2.90
2018-02-06T16:22:19.885Z,2.90
2018-02-06T16:24:47.405Z,2.90
2018-02-06T16:27:15.732Z,2.80
2018-02-06T16:29:43.265Z,2.80
2018-02-06T16:32:10.846Z,2.70
2018-02-06T16:34:38.389Z,2.70
2018-02-06T16:37:06.158Z,2.80
2018-02-06T16:39:33.684Z,2.70
2018-02-06T16:42:01.273Z,2.70
2018-02-06T16:44:28.795Z,2.70
2018-02-06T16:46:56.362Z,2.60
2018-02-06T16:49:23.920Z,2.50
2018-02-06T16:51:51.481Z,2.50
2018-02-06T16:54:19.873Z,2.50
2018-02-06T16:56:47.404Z,2.50
2018-02-06T16:59:15.105Z,2.40
2018-02-06T17:01:43.544Z,2.40
2018-02-06T17:04:11.078Z,2.40
2018-02-06T17:06:38.792Z,2.40
2018-02-06T17:09:07.053Z,2.40
2018-02-06T17:11:34.933Z,2.40
2018-02-06T17:14:03.273Z,2.40
2018-02-06T17:16:30.776Z,2.40
2018-02-06T17:18:59.386Z,2.20
2018-02-06T17:21:26.840Z,2.20
2018-02-06T17:26:33.998Z,2.00
2018-02-06T17:29:01.559Z,2.00
2018-02-06T17:31:29.095Z,1.90
2018-02-06T17:33:56.654Z,1.90
2018-02-06T17:36:24.803Z,1.90
2018-02-06T17:38:52.439Z,1.70
2018-02-06T17:41:20.103Z,1.60
2018-02-06T17:43:47.644Z,1.50
2018-02-06T17:46:15.235Z,1.50
2018-02-06T17:48:42.771Z,1.40
2018-02-06T17:51:11.070Z,1.30
2018-02-06T17:53:38.626Z,1.30
2018-02-06T17:56:06.177Z,1.30
2018-02-06T17:58:34.420Z,1.20
2018-02-06T18:01:01.890Z,1.20
2018-02-06T18:03:29.815Z,1.30
2018-02-06T18:05:58.818Z,1.30
2018-02-06T18:08:26.365Z,1.20
2018-02-06T18:10:53.912Z,1.20
2018-02-06T18:13:21.469Z,1.20
2018-02-06T18:15:49.009Z,1.30
2018-02-06T18:18:17.319Z,1.00
2018-02-06T18:20:44.829Z,1.00
2018-02-06T18:23:12.379Z,0.90
2018-02-06T18:25:39.956Z,0.90
2018-02-06T18:28:07.521Z,0.80
2018-02-06T18:30:35.075Z,0.70
2018-02-06T18:33:02.600Z,0.70
2018-02-06T18:35:30.230Z,0.60
2018-02-06T18:37:57.755Z,0.60
2018-02-06T18:40:26.056Z,0.70
2018-02-06T18:42:53.678Z,0.70
2018-02-06T18:45:21.236Z,0.70
2018-02-06T18:47:48.788Z,0.80
2018-02-06T18:50:16.317Z,0.70
2018-02-06T18:52:43.943Z,0.60
2018-02-06T18:55:11.464Z,0.40
2018-02-06T18:57:38.974Z,0.30
2018-02-06T19:00:06.527Z,0.30
2018-02-06T19:02:34.118Z,0.20
2018-02-06T19:05:01.681Z,0.10
2018-02-06T19:07:29.222Z,0.00
2018-02-06T19:09:56.830Z,0.00
2018-02-06T19:12:24.359Z,0.00
2018-02-06T19:14:52.105Z,0.00
2018-02-06T19:17:19.621Z,0.00
2018-02-06T19:19:47.133Z,0.20
2018-02-06T19:22:14.687Z,0.20
2018-02-06T19:24:42.246Z,0.30
2018-02-06T19:27:09.753Z,0.40
2018-02-06T19:29:37.350Z,0.40
2018-02-06T19:32:04.880Z,0.30
2018-02-06T19:34:32.435Z,0.20
2018-02-06T19:37:00.020Z,0.10
2018-02-06T19:39:27.525Z,0.00
2018-02-06T19:41:55.041Z,0.00
2018-02-06T19:44:23.382Z,-0.10
2018-02-06T19:46:50.938Z,-0.10
2018-02-06T19:49:18.475Z,0.00
2018-02-06T19:51:46.058Z,0.00
2018-02-06T19:54:13.554Z,0.00
2018-02-06T19:56:41.943Z,0.00
2018-02-06T19:59:09.453Z,0.00
2018-02-06T20:01:36.949Z,0.10
2018-02-06T20:04:05.239Z,0.00
2018-02-06T20:06:32.762Z,-0.10
2018-02-06T20:09:00.312Z,0.00
2018-02-06T20:11:27.790Z,0.10
2018-02-06T20:13:56.084Z,0.10
2018-02-06T20:16:23.601Z,0.10
2018-02-06T20:18:51.127Z,0.10
2018-02-06T20:21:18.616Z,0.00
2018-02-06T20:23:46.169Z,0.10
2018-02-06T20:26:13.724Z,0.20
2018-02-06T20:28:41.246Z,0.30
2018-02-06T20:31:08.778Z,0.40
2018-02-06T20:33:37.134Z,0.40
2018-02-06T20:36:04.691Z,0.40
2018-02-06T20:38:32.236Z,0.50
2018-02-06T20:40:59.747Z,0.50
2018-02-06T20:43:27.321Z,0.60
2018-02-06T20:45:54.842Z,0.70
2018-02-06T20:48:22.377Z,0.70
2018-02-06T20:50:49.985Z,0.80
2018-02-06T20:53:18.275Z,0.90
2018-02-06T20:55:45.778Z,0.90
2018-02-06T20:58:13.313Z,0.90
2018-02-06T21:00:40.908Z,0.80
2018-02-06T21:03:08.434Z,0.80
2018-02-06T21:05:35.928Z,0.80
2018-02-06T21:08:03.492Z,0.80
2018-02-06T21:10:31.030Z,0.80
2018-02-06T21:12:58.537Z,0.80
2018-02-06T21:15:26.158Z,0.80
2018-02-06T21:17:53.677Z,0.80
2018-02-06T21:20:21.215Z,0.70
2018-02-06T21:22:48.824Z,0.80
2018-02-06T21:25:16.406Z,0.80
2018-02-06T21:27:43.928Z,0.80
2018-02-06T21:30:11.418Z,0.80
2018-02-06T21:32:38.930Z,0.80
2018-02-06T21:35:06.445Z,0.90
2018-02-06T21:37:33.981Z,0.90
2018-02-06T21:40:01.564Z,0.90
2018-02-06T21:42:29.891Z,1.00
2018-02-06T21:44:57.400Z,1.00
2018-02-06T21:47:25.745Z,1.00
2018-02-06T21:49:53.287Z,1.00
2018-02-06T21:52:20.868Z,1.00
2018-02-06T21:54:48.560Z,1.00
2018-02-06T21:57:16.069Z,1.00
2018-02-06T21:59:43.598Z,1.20
2018-02-06T22:02:11.882Z,1.20
2018-02-06T22:04:39.423Z,1.20
2018-02-06T22:07:07.728Z,1.10
2018-02-06T22:09:35.236Z,1.10
2018-02-06T22:12:02.763Z,1.10
2018-02-06T22:14:30.288Z,1.10
2018-02-06T22:16:58.591Z,1.10
2018-02-06T22:19:26.171Z,1.10
2018-02-06T22:21:53.686Z,1.20
2018-02-06T22:24:21.205Z,1.10
2018-02-06T22:26:48.729Z,1.10
2018-02-06T22:29:16.267Z,1.10
2018-02-06T22:31:44.559Z,1.20
2018-02-06T22:34:12.099Z,1.20
2018-02-06T22:36:40.384Z,1.30
2018-02-06T22:39:07.918Z,1.30
2018-02-06T22:41:36.234Z,1.30
2018-02-06T22:44:03.830Z,1.30
2018-02-06T22:46:31.271Z,1.20
2018-02-06T22:48:58.819Z,1.30
2018-02-06T22:51:26.362Z,1.20
2018-02-06T22:53:53.878Z,1.20
2018-02-06T22:56:21.420Z,1.20
2018-02-06T22:58:48.937Z,1.20
2018-02-06T23:01:16.451Z,1.20
2018-02-06T23:03:44.005Z,1.20
2018-02-06T23:06:11.552Z,1.30
2018-02-06T23:08:39.110Z,1.30
2018-02-06T23:11:06.661Z,1.40
2018-02-06T23:13:34.183Z,1.40
2018-02-06T23:16:02.469Z,1.40
2018-02-06T23:18:30.004Z,1.40
2018-02-06T23:20:58.291Z,1.40
2018-02-06T23:23:26.596Z,1.30
2018-02-06T23:25:54.137Z,1.30
2018-02-06T23:28:21.669Z,1.20
2018-02-06T23:30:49.997Z,1.10
2018-02-06T23:33:17.539Z,1.10
2018-02-06T23:35:45.098Z,1.10
2018-02-06T23:38:12.631Z,1.00
2018-02-06T23:40:40.915Z,0.90
2018-02-06T23:43:09.202Z,0.80
2018-02-06T23:45:37.487Z,0.70
2018-02-06T23:48:04.977Z,0.60
2018-02-06T23:50:32.488Z,0.60
2018-02-06T23:53:00.741Z,0.60
2018-02-06T23:55:28.244Z,0.60
2018-02-06T23:57:55.752Z,0.60
